sensor_id;sensor_type;location;lat;lon;timestamp;pressure;altitude;pressure_sealevel;temperature;humidity
51261;BME280;61705;46.228;24.812;2024-02-14T00:00:50;97369.78;;;4.27;100.00
51261;BME280;61705;46.228;24.812;2024-02-14T00:03:17;97378.50;;;4.27;100.00
51261;BME280;61705;46.228;24.812;2024-02-14T00:05:44;97379.31;;;4.30;100.00
51261;BME280;61705;46.228;24.812;2024-02-14T00:08:11;97383.69;;;4.29;100.00
51261;BME280;61705;46.228;24.812;2024-02-14T00:10:39;97386.34;;;4.27;100.00
51261;BME280;61705;46.228;24.812;2024-02-14T00:13:06;97387.16;;;4.30;100.00
51261;BME280;61705;46.228;24.812;2024-02-14T00:15:34;97388.28;;;4.21;100.00
51261;BME280;61705;46.228;24.812;2024-02-14T00:18:01;97385.59;;;4.22;100.00
51261;BME280;61705;46.228;24.812;2024-02-14T00:20:28;97395.16;;;4.23;100.00
51261;BME280;61705;46.228;24.812;2024-02-14T00:22:54;97394.44;;;4.18;100.00
51261;BME280;61705;46.228;24.812;2024-02-14T00:25:21;97399.66;;;4.17;100.00
51261;BME280;61705;46.228;24.812;2024-02-14T00:27:48;97391.69;;;4.23;100.00
51261;BME280;61705;46.228;24.812;2024-02-14T00:30:14;97403.06;;;4.22;100.00
51261;BME280;61705;46.228;24.812;2024-02-14T00:32:41;97396.13;;;4.19;100.00
51261;BME280;61705;46.228;24.812;2024-02-14T00:35:08;97394.38;;;4.20;100.00
51261;BME280;61705;46.228;24.812;2024-02-14T00:37:35;97401.16;;;4.27;100.00
51261;BME280;61705;46.228;24.812;2024-02-14T00:40:02;97397.97;;;4.16;100.00
51261;BME280;61705;46.228;24.812;2024-02-14T00:42:29;97399.66;;;4.17;100.00
51261;BME280;61705;46.228;24.812;2024-02-14T00:44:55;97411.03;;;4.16;100.00
51261;BME280;61705;46.228;24.812;2024-02-14T00:47:22;97408.44;;;4.16;100.00
51261;BME280;61705;46.228;24.812;2024-02-14T00:49:49;97401.44;;;4.16;100.00
51261;BME280;61705;46.228;24.812;2024-02-14T00:52:15;97404.09;;;4.15;100.00
51261;BME280;61705;46.228;24.812;2024-02-14T00:54:43;97403.19;;;4.16;100.00
51261;BME280;61705;46.228;24.812;2024-02-14T00:57:09;97409.47;;;4.09;100.00
51261;BME280;61705;46.228;24.812;2024-02-14T00:59:36;97407.84;;;4.03;100.00
51261;BME280;61705;46.228;24.812;2024-02-14T01:02:03;97411.16;;;4.11;100.00
51261;BME280;61705;46.228;24.812;2024-02-14T01:04:29;97408.56;;;4.10;100.00
51261;BME280;61705;46.228;24.812;2024-02-14T01:06:56;97408.56;;;4.10;100.00
51261;BME280;61705;46.228;24.812;2024-02-14T01:09:22;97413.91;;;4.05;100.00
51261;BME280;61705;46.228;24.812;2024-02-14T01:11:49;97407.72;;;4.09;100.00
51261;BME280;61705;46.228;24.812;2024-02-14T01:14:17;97414.78;;;4.06;100.00
51261;BME280;61705;46.228;24.812;2024-02-14T01:16:44;97412.03;;;4.12;100.00
51261;BME280;61705;46.228;24.812;2024-02-14T01:19:11;97422.44;;;4.13;100.00
51261;BME280;61705;46.228;24.812;2024-02-14T01:21:37;97426.00;;;4.09;100.00
51261;BME280;61705;46.228;24.812;2024-02-14T01:24:04;97419.88;;;4.10;100.00
51261;BME280;61705;46.228;24.812;2024-02-14T01:26:31;97424.44;;;4.02;100.00
51261;BME280;61705;46.228;24.812;2024-02-14T01:29:01;97417.44;;;4.04;100.00
51261;BME280;61705;46.228;24.812;2024-02-14T01:31:28;97419.22;;;4.02;100.00
51261;BME280;61705;46.228;24.812;2024-02-14T01:33:55;97416.59;;;4.03;100.00
51261;BME280;61705;46.228;24.812;2024-02-14T01:36:22;97417.53;;;3.99;100.00
51261;BME280;61705;46.228;24.812;2024-02-14T01:38:49;97424.50;;;3.99;100.00
51261;BME280;61705;46.228;24.812;2024-02-14T01:41:16;97431.56;;;3.97;100.00
51261;BME280;61705;46.228;24.812;2024-02-14T01:43:42;97431.44;;;4.01;100.00
51261;BME280;61705;46.228;24.812;2024-02-14T01:46:10;97433.31;;;3.95;100.00
51261;BME280;61705;46.228;24.812;2024-02-14T01:48:37;97437.66;;;3.96;100.00
51261;BME280;61705;46.228;24.812;2024-02-14T01:51:06;97435.81;;;3.99;100.00
51261;BME280;61705;46.228;24.812;2024-02-14T01:53:35;97437.59;;;3.99;100.00
51261;BME280;61705;46.228;24.812;2024-02-14T01:56:02;97440.06;;;4.05;100.00
51261;BME280;61705;46.228;24.812;2024-02-14T01:58:31;97440.19;;;3.99;100.00
51261;BME280;61705;46.228;24.812;2024-02-14T02:00:59;97449.06;;;3.93;100.00
51261;BME280;61705;46.228;24.812;2024-02-14T02:03:27;97441.06;;;3.99;100.00
51261;BME280;61705;46.228;24.812;2024-02-14T02:05:53;97436.84;;;3.94;100.00
51261;BME280;61705;46.228;24.812;2024-02-14T02:08:21;97448.03;;;3.99;100.00
51261;BME280;61705;46.228;24.812;2024-02-14T02:10:48;97445.53;;;3.94;100.00
51261;BME280;61705;46.228;24.812;2024-02-14T02:13:14;97442.88;;;3.96;100.00
51261;BME280;61705;46.228;24.812;2024-02-14T02:15:42;97450.78;;;3.94;100.00
51261;BME280;61705;46.228;24.812;2024-02-14T02:18:12;97447.25;;;3.95;100.00
51261;BME280;61705;46.228;24.812;2024-02-14T02:20:39;97456.13;;;3.88;100.00
51261;BME280;61705;46.228;24.812;2024-02-14T02:23:10;97456.13;;;3.90;100.00
51261;BME280;61705;46.228;24.812;2024-02-14T02:25:37;97463.00;;;3.94;100.00
51261;BME280;61705;46.228;24.812;2024-02-14T02:28:03;97463.06;;;3.91;100.00
51261;BME280;61705;46.228;24.812;2024-02-14T02:30:30;97463.91;;;3.91;100.00
51261;BME280;61705;46.228;24.812;2024-02-14T02:32:57;97466.56;;;3.90;100.00
51261;BME280;61705;46.228;24.812;2024-02-14T02:35:25;97465.69;;;3.89;100.00
51261;BME280;61705;46.228;24.812;2024-02-14T02:37:52;97475.91;;;4.00;100.00
51261;BME280;61705;46.228;24.812;2024-02-14T02:40:19;97482.16;;;3.93;100.00
51261;BME280;61705;46.228;24.812;2024-02-14T02:42:47;97484.88;;;3.90;100.00
51261;BME280;61705;46.228;24.812;2024-02-14T02:45:14;97491.81;;;3.89;100.00
51261;BME280;61705;46.228;24.812;2024-02-14T02:47:41;97492.72;;;3.90;100.00
51261;BME280;61705;46.228;24.812;2024-02-14T02:50:07;97488.22;;;3.95;100.00
51261;BME280;61705;46.228;24.812;2024-02-14T02:52:34;97493.56;;;3.90;100.00
51261;BME280;61705;46.228;24.812;2024-02-14T02:55:01;97501.50;;;3.86;100.00
51261;BME280;61705;46.228;24.812;2024-02-14T02:57:28;97496.13;;;3.92;100.00
51261;BME280;61705;46.228;24.812;2024-02-14T02:59:55;97499.84;;;3.82;100.00
51261;BME280;61705;46.228;24.812;2024-02-14T03:02:22;97504.09;;;3.87;100.00
51261;BME280;61705;46.228;24.812;2024-02-14T03:04:49;97497.84;;;3.93;100.00
51261;BME280;61705;46.228;24.812;2024-02-14T03:07:19;97500.56;;;3.90;100.00
51261;BME280;61705;46.228;24.812;2024-02-14T03:09:46;97512.78;;;3.88;100.00
51261;BME280;61705;46.228;24.812;2024-02-14T03:12:12;97511.94;;;3.87;100.00
51261;BME280;61705;46.228;24.812;2024-02-14T03:14:42;97513.63;;;3.88;100.00
51261;BME280;61705;46.228;24.812;2024-02-14T03:17:12;97514.47;;;3.90;100.00
51261;BME280;61705;46.228;24.812;2024-02-14T03:19:39;97518.00;;;3.88;100.00
51261;BME280;61705;46.228;24.812;2024-02-14T03:22:06;97521.59;;;3.82;100.00
51261;BME280;61705;46.228;24.812;2024-02-14T03:24:35;97524.19;;;3.84;100.00
51261;BME280;61705;46.228;24.812;2024-02-14T03:27:03;97524.06;;;3.90;100.00
51261;BME280;61705;46.228;24.812;2024-02-14T03:29:33;97529.44;;;3.84;100.00
51261;BME280;61705;46.228;24.812;2024-02-14T03:32:02;97532.78;;;3.89;100.00
51261;BME280;61705;46.228;24.812;2024-02-14T03:34:31;97545.97;;;3.84;100.00
51261;BME280;61705;46.228;24.812;2024-02-14T03:37:00;97547.72;;;3.84;100.00
51261;BME280;61705;46.228;24.812;2024-02-14T03:39:28;97542.44;;;3.85;100.00
51261;BME280;61705;46.228;24.812;2024-02-14T03:41:55;97544.25;;;3.83;100.00
51261;BME280;61705;46.228;24.812;2024-02-14T03:44:22;97546.03;;;3.81;100.00
51261;BME280;61705;46.228;24.812;2024-02-14T03:46:49;97545.13;;;3.82;100.00
51261;BME280;61705;46.228;24.812;2024-02-14T03:49:16;97544.31;;;3.78;100.00
51261;BME280;61705;46.228;24.812;2024-02-14T03:51:43;97553.91;;;3.79;100.00
51261;BME280;61705;46.228;24.812;2024-02-14T03:54:10;97553.09;;;3.76;100.00
51261;BME280;61705;46.228;24.812;2024-02-14T03:56:38;97552.22;;;3.75;100.00
51261;BME280;61705;46.228;24.812;2024-02-14T03:59:05;97551.44;;;3.72;100.00
51261;BME280;61705;46.228;24.812;2024-02-14T04:01:32;97554.03;;;3.73;100.00
51261;BME280;61705;46.228;24.812;2024-02-14T04:03:59;97558.41;;;3.73;100.00
51261;BME280;61705;46.228;24.812;2024-02-14T04:06:26;97558.47;;;3.70;100.00
51261;BME280;61705;46.228;24.812;2024-02-14T04:08:53;97562.00;;;3.67;100.00
51261;BME280;61705;46.228;24.812;2024-02-14T04:11:20;97557.63;;;3.68;100.00
51261;BME280;61705;46.228;24.812;2024-02-14T04:13:47;97568.06;;;3.69;100.00
51261;BME280;61705;46.228;24.812;2024-02-14T04:16:13;97563.91;;;3.59;100.00
51261;BME280;61705;46.228;24.812;2024-02-14T04:18:40;97559.59;;;3.56;100.00
51261;BME280;61705;46.228;24.812;2024-02-14T04:21:09;97573.53;;;3.55;100.00
51261;BME280;61705;46.228;24.812;2024-02-14T04:23:36;97577.94;;;3.53;100.00
51261;BME280;61705;46.228;24.812;2024-02-14T04:26:03;97573.53;;;3.55;100.00
51261;BME280;61705;46.228;24.812;2024-02-14T04:28:30;97573.53;;;3.55;100.00
51261;BME280;61705;46.228;24.812;2024-02-14T04:30:56;97580.66;;;3.49;100.00
51261;BME280;61705;46.228;24.812;2024-02-14T04:33:23;97585.88;;;3.49;100.00
51261;BME280;61705;46.228;24.812;2024-02-14T04:35:50;97584.13;;;3.48;100.00
51261;BME280;61705;46.228;24.812;2024-02-14T04:38:17;97582.34;;;3.50;100.00
51261;BME280;61705;46.228;24.812;2024-02-14T04:40:46;97590.16;;;3.51;100.00
51261;BME280;61705;46.228;24.812;2024-02-14T04:43:14;97598.09;;;3.47;100.00
51261;BME280;61705;46.228;24.812;2024-02-14T04:45:41;97597.25;;;3.45;100.00
51261;BME280;61705;46.228;24.812;2024-02-14T04:48:07;97598.94;;;3.47;100.00
51261;BME280;61705;46.228;24.812;2024-02-14T04:50:34;97610.25;;;3.48;100.00
51261;BME280;61705;46.228;24.812;2024-02-14T04:53:01;97609.34;;;3.50;100.00
51261;BME280;61705;46.228;24.812;2024-02-14T04:55:27;97616.28;;;3.51;100.00
51261;BME280;61705;46.228;24.812;2024-02-14T04:57:55;97617.22;;;3.49;100.00
51261;BME280;61705;46.228;24.812;2024-02-14T05:00:22;97613.81;;;3.45;100.00
51261;BME280;61705;46.228;24.812;2024-02-14T05:02:49;97620.81;;;3.42;100.00
51261;BME280;61705;46.228;24.812;2024-02-14T05:05:16;97626.91;;;3.42;100.00
51261;BME280;61705;46.228;24.812;2024-02-14T05:07:43;97629.59;;;3.38;100.00
51261;BME280;61705;46.228;24.812;2024-02-14T05:10:09;97627.84;;;3.38;100.00
51261;BME280;61705;46.228;24.812;2024-02-14T05:12:36;97630.47;;;3.37;100.00
51261;BME280;61705;46.228;24.812;2024-02-14T05:15:03;97628.72;;;3.37;100.00
51261;BME280;61705;46.228;24.812;2024-02-14T05:17:30;97636.63;;;3.34;100.00
51261;BME280;61705;46.228;24.812;2024-02-14T05:19:57;97633.19;;;3.32;100.00
51261;BME280;61705;46.228;24.812;2024-02-14T05:22:24;97635.03;;;3.25;100.00
51261;BME280;61705;46.228;24.812;2024-02-14T05:24:51;97645.44;;;3.28;100.00
51261;BME280;61705;46.228;24.812;2024-02-14T05:27:17;97641.03;;;3.32;100.00
51261;BME280;61705;46.228;24.812;2024-02-14T05:29:44;97647.97;;;3.31;100.00
51261;BME280;61705;46.228;24.812;2024-02-14T05:32:11;97655.84;;;3.30;100.00
51261;BME280;61705;46.228;24.812;2024-02-14T05:34:37;97654.09;;;3.32;100.00
51261;BME280;61705;46.228;24.812;2024-02-14T05:37:04;97651.47;;;3.32;100.00
51261;BME280;61705;46.228;24.812;2024-02-14T05:39:32;97659.31;;;3.30;100.00
51261;BME280;61705;46.228;24.812;2024-02-14T05:41:58;97655.00;;;3.28;100.00
51261;BME280;61705;46.228;24.812;2024-02-14T05:44:25;97666.28;;;3.30;100.00
51261;BME280;61705;46.228;24.812;2024-02-14T05:46:53;97672.41;;;3.29;100.00
51261;BME280;61705;46.228;24.812;2024-02-14T05:49:21;97674.13;;;3.30;100.00
51261;BME280;61705;46.228;24.812;2024-02-14T05:51:48;97677.59;;;3.30;100.00
51261;BME280;61705;46.228;24.812;2024-02-14T05:54:16;97678.41;;;3.34;100.00
51261;BME280;61705;46.228;24.812;2024-02-14T05:56:42;97679.31;;;3.33;100.00
51261;BME280;61705;46.228;24.812;2024-02-14T05:59:09;97681.00;;;3.34;100.00
51261;BME280;61705;46.228;24.812;2024-02-14T06:01:36;97679.16;;;3.41;100.00
51261;BME280;61705;46.228;24.812;2024-02-14T06:04:03;97679.22;;;3.38;100.00
51261;BME280;61705;46.228;24.812;2024-02-14T06:06:30;97692.22;;;3.41;100.00
51261;BME280;61705;46.228;24.812;2024-02-14T06:08:56;97688.72;;;3.43;100.00
51261;BME280;61705;46.228;24.812;2024-02-14T06:11:24;97697.41;;;3.44;100.00
51261;BME280;61705;46.228;24.812;2024-02-14T06:13:51;97697.44;;;3.41;100.00
51261;BME280;61705;46.228;24.812;2024-02-14T06:16:18;97708.75;;;3.43;100.00
51261;BME280;61705;46.228;24.812;2024-02-14T06:18:44;97707.84;;;3.45;100.00
51261;BME280;61705;46.228;24.812;2024-02-14T06:21:11;97709.47;;;3.51;100.00
51261;BME280;61705;46.228;24.812;2024-02-14T06:23:38;97707.66;;;3.54;100.00
51261;BME280;61705;46.228;24.812;2024-02-14T06:26:05;97710.25;;;3.56;100.00
51261;BME280;61705;46.228;24.812;2024-02-14T06:28:33;97703.25;;;3.58;100.00
51261;BME280;61705;46.228;24.812;2024-02-14T06:30:59;97712.88;;;3.56;100.00
51261;BME280;61705;46.228;24.812;2024-02-14T06:33:27;97711.16;;;3.53;100.00
51261;BME280;61705;46.228;24.812;2024-02-14T06:35:55;97710.38;;;3.50;100.00
51261;BME280;61705;46.228;24.812;2024-02-14T06:38:22;97709.38;;;3.57;100.00
51261;BME280;61705;46.228;24.812;2024-02-14T06:40:48;97713.78;;;3.53;100.00
51261;BME280;61705;46.228;24.812;2024-02-14T06:43:15;97717.31;;;3.51;100.00
51261;BME280;61705;46.228;24.812;2024-02-14T06:45:42;97718.97;;;3.56;100.00
51261;BME280;61705;46.228;24.812;2024-02-14T06:48:09;97723.19;;;3.62;100.00
51261;BME280;61705;46.228;24.812;2024-02-14T06:50:36;97717.09;;;3.63;100.00
51261;BME280;61705;46.228;24.812;2024-02-14T06:53:03;97722.34;;;3.62;100.00
51261;BME280;61705;46.228;24.812;2024-02-14T06:55:30;97718.78;;;3.67;100.00
51261;BME280;61705;46.228;24.812;2024-02-14T06:57:59;97723.19;;;3.64;100.00
51261;BME280;61705;46.228;24.812;2024-02-14T07:00:26;97718.72;;;3.70;100.00
51261;BME280;61705;46.228;24.812;2024-02-14T07:02:54;97723.91;;;3.73;100.00
51261;BME280;61705;46.228;24.812;2024-02-14T07:05:21;97723.78;;;3.79;100.00
51261;BME280;61705;46.228;24.812;2024-02-14T07:07:48;97725.41;;;3.85;100.00
51261;BME280;61705;46.228;24.812;2024-02-14T07:10:14;97729.81;;;3.83;100.00
51261;BME280;61705;46.228;24.812;2024-02-14T07:12:41;97726.97;;;3.95;100.00
51261;BME280;61705;46.228;24.812;2024-02-14T07:15:08;97730.31;;;4.03;100.00
51261;BME280;61705;46.228;24.812;2024-02-14T07:17:35;97733.69;;;4.09;100.00
51261;BME280;61705;46.228;24.812;2024-02-14T07:20:02;97731.78;;;4.18;100.00
51261;BME280;61705;46.228;24.812;2024-02-14T07:22:29;97734.97;;;4.33;100.00
51261;BME280;61705;46.228;24.812;2024-02-14T07:24:57;97731.41;;;4.37;100.00
51261;BME280;61705;46.228;24.812;2024-02-14T07:27:24;97740.09;;;4.39;100.00
51261;BME280;61705;46.228;24.812;2024-02-14T07:29:50;97732.16;;;4.43;100.00
51261;BME280;61705;46.228;24.812;2024-02-14T07:32:17;97747.78;;;4.48;100.00
51261;BME280;61705;46.228;24.812;2024-02-14T07:34:44;97736.28;;;4.55;100.00
51261;BME280;61705;46.228;24.812;2024-02-14T07:37:11;97746.78;;;4.54;100.00
51261;BME280;61705;46.228;24.812;2024-02-14T07:39:37;97744.66;;;4.71;100.00
51261;BME280;61705;46.228;24.812;2024-02-14T07:42:04;97746.84;;;4.91;100.00
51261;BME280;61705;46.228;24.812;2024-02-14T07:44:31;97746.03;;;4.89;100.00
51261;BME280;61705;46.228;24.812;2024-02-14T07:46:58;97751.13;;;4.96;100.00
51261;BME280;61705;46.228;24.812;2024-02-14T07:49:29;97748.44;;;4.99;100.00
51261;BME280;61705;46.228;24.812;2024-02-14T07:51:56;97751.66;;;5.11;100.00
51261;BME280;61705;46.228;24.812;2024-02-14T07:54:22;97761.03;;;5.21;100.00
51261;BME280;61705;46.228;24.812;2024-02-14T07:56:49;97756.59;;;5.25;100.00
51261;BME280;61705;46.228;24.812;2024-02-14T07:59:16;97754.81;;;5.27;100.00
51261;BME280;61705;46.228;24.812;2024-02-14T08:01:42;97754.00;;;5.23;100.00
51261;BME280;61705;46.228;24.812;2024-02-14T08:04:10;97755.88;;;5.18;100.00
51261;BME280;61705;46.228;24.812;2024-02-14T08:06:36;97751.59;;;5.14;100.00
51261;BME280;61705;46.228;24.812;2024-02-14T08:09:03;97761.22;;;5.12;100.00
51261;BME280;61705;46.228;24.812;2024-02-14T08:11:33;97753.34;;;5.13;100.00
51261;BME280;61705;46.228;24.812;2024-02-14T08:14:00;97755.13;;;5.13;100.00
51261;BME280;61705;46.228;24.812;2024-02-14T08:16:26;97755.97;;;5.13;100.00
51261;BME280;61705;46.228;24.812;2024-02-14T08:18:53;97755.25;;;5.07;100.00
51261;BME280;61705;46.228;24.812;2024-02-14T08:21:26;97762.19;;;5.08;100.00
51261;BME280;61705;46.228;24.812;2024-02-14T08:23:57;97762.38;;;5.00;100.00
51261;BME280;61705;46.228;24.812;2024-02-14T08:26:27;97762.38;;;5.00;100.00
51261;BME280;61705;46.228;24.812;2024-02-14T08:28:54;97768.47;;;5.01;100.00
51261;BME280;61705;46.228;24.812;2024-02-14T08:31:21;97768.41;;;5.04;100.00
51261;BME280;61705;46.228;24.812;2024-02-14T08:33:48;97767.56;;;5.02;100.00
51261;BME280;61705;46.228;24.812;2024-02-14T08:36:15;97781.13;;;5.20;100.00
51261;BME280;61705;46.228;24.812;2024-02-14T08:38:43;97781.09;;;5.22;100.00
51261;BME280;61705;46.228;24.812;2024-02-14T08:41:10;97778.19;;;5.34;100.00
51261;BME280;61705;46.228;24.812;2024-02-14T08:43:37;97779.19;;;5.30;100.00
51261;BME280;61705;46.228;24.812;2024-02-14T08:46:03;97781.00;;;5.27;100.00
51261;BME280;61705;46.228;24.812;2024-02-14T08:48:35;97775.03;;;5.20;100.00
51261;BME280;61705;46.228;24.812;2024-02-14T08:51:02;97778.59;;;5.16;100.00
51261;BME280;61705;46.228;24.812;2024-02-14T08:53:30;97783.78;;;5.19;100.00
51261;BME280;61705;46.228;24.812;2024-02-14T08:55:56;97789.75;;;5.26;100.00
51261;BME280;61705;46.228;24.812;2024-02-14T08:58:24;97785.28;;;5.31;100.00
51261;BME280;61705;46.228;24.812;2024-02-14T09:00:50;97787.06;;;5.29;100.00
51261;BME280;61705;46.228;24.812;2024-02-14T09:03:34;97786.19;;;5.28;100.00
51261;BME280;61705;46.228;24.812;2024-02-14T09:06:01;97786.31;;;5.23;100.00
51261;BME280;61705;46.228;24.812;2024-02-14T09:08:30;97796.75;;;5.25;100.00
51261;BME280;61705;46.228;24.812;2024-02-14T09:10:57;97799.13;;;5.36;100.00
51261;BME280;61705;46.228;24.812;2024-02-14T09:13:26;97799.25;;;5.30;100.00
51261;BME280;61705;46.228;24.812;2024-02-14T09:15:53;97798.44;;;5.28;100.00
51261;BME280;61705;46.228;24.812;2024-02-14T09:18:21;97802.91;;;5.22;100.00
51261;BME280;61705;46.228;24.812;2024-02-14T09:20:47;97807.16;;;5.28;100.00
51261;BME280;61705;46.228;24.812;2024-02-14T09:23:17;97799.19;;;5.33;100.00
51261;BME280;61705;46.228;24.812;2024-02-14T09:25:49;97801.72;;;5.37;100.00
51261;BME280;61705;46.228;24.812;2024-02-14T09:28:16;97793.94;;;5.33;100.00
51261;BME280;61705;46.228;24.812;2024-02-14T09:30:42;97798.44;;;5.28;100.00
51261;BME280;61705;46.228;24.812;2024-02-14T09:33:09;97804.22;;;5.42;100.00
51261;BME280;61705;46.228;24.812;2024-02-14T09:35:37;97804.16;;;5.45;100.00
51261;BME280;61705;46.228;24.812;2024-02-14T09:38:06;97807.38;;;5.56;100.00
51261;BME280;61705;46.228;24.812;2024-02-14T09:40:32;97803.69;;;5.65;100.00
51261;BME280;61705;46.228;24.812;2024-02-14T09:43:01;97802.66;;;5.70;100.00
51261;BME280;61705;46.228;24.812;2024-02-14T09:45:30;97806.41;;;5.60;100.00
51261;BME280;61705;46.228;24.812;2024-02-14T09:48:00;97803.44;;;5.74;100.00
51261;BME280;61705;46.228;24.812;2024-02-14T09:50:28;97798.38;;;5.68;100.00
51261;BME280;61705;46.228;24.812;2024-02-14T09:52:57;97808.22;;;5.57;100.00
51261;BME280;61705;46.228;24.812;2024-02-14T09:55:24;97808.31;;;5.54;100.00
51261;BME280;61705;46.228;24.812;2024-02-14T09:57:52;97805.53;;;5.60;100.00
51261;BME280;61705;46.228;24.812;2024-02-14T10:00:19;97808.09;;;5.64;100.00
51261;BME280;61705;46.228;24.812;2024-02-14T10:02:46;97802.44;;;5.80;100.00
51261;BME280;61705;46.228;24.812;2024-02-14T10:05:13;97804.03;;;5.87;100.00
51261;BME280;61705;46.228;24.812;2024-02-14T10:07:43;97800.59;;;5.85;100.00
51261;BME280;61705;46.228;24.812;2024-02-14T10:10:10;97802.72;;;6.05;100.00
51261;BME280;61705;46.228;24.812;2024-02-14T10:12:37;97802.56;;;6.12;100.00
51261;BME280;61705;46.228;24.812;2024-02-14T10:15:05;97796.81;;;6.31;100.00
51261;BME280;61705;46.228;24.812;2024-02-14T10:17:34;97792.03;;;6.45;100.00
51261;BME280;61705;46.228;24.812;2024-02-14T10:20:02;97794.72;;;6.44;100.00
51261;BME280;61705;46.228;24.812;2024-02-14T10:25:10;97787.47;;;6.53;100.00
51261;BME280;61705;46.228;24.812;2024-02-14T10:27:38;97792.50;;;6.61;100.00
51261;BME280;61705;46.228;24.812;2024-02-14T10:30:05;97785.16;;;6.74;100.00
51261;BME280;61705;46.228;24.812;2024-02-14T10:32:36;97791.97;;;6.79;100.00
51261;BME280;61705;46.228;24.812;2024-02-14T10:35:09;97783.84;;;6.88;100.00
51261;BME280;61705;46.228;24.812;2024-02-14T10:37:39;97786.09;;;7.01;100.00
51261;BME280;61705;46.228;24.812;2024-02-14T10:40:08;97783.38;;;7.04;100.00
51261;BME280;61705;46.228;24.812;2024-02-14T10:42:37;97784.47;;;6.67;100.00
51261;BME280;61705;46.228;24.812;2024-02-14T10:45:04;97780.81;;;6.40;100.00
51261;BME280;61705;46.228;24.812;2024-02-14T10:47:35;97791.88;;;6.18;100.00
51261;BME280;61705;46.228;24.812;2024-02-14T10:50:03;97792.28;;;6.03;100.00
51261;BME280;61705;46.228;24.812;2024-02-14T10:52:32;97792.81;;;5.80;100.00
51261;BME280;61705;46.228;24.812;2024-02-14T10:55:03;97800.88;;;5.73;100.00
51261;BME280;61705;46.228;24.812;2024-02-14T10:57:30;97805.53;;;5.60;100.00
51261;BME280;61705;46.228;24.812;2024-02-14T10:59:59;97801.94;;;5.64;100.00
51261;BME280;61705;46.228;24.812;2024-02-14T11:02:27;97806.31;;;5.65;100.00
51261;BME280;61705;46.228;24.812;2024-02-14T11:04:59;97807.75;;;5.78;100.00
51261;BME280;61705;46.228;24.812;2024-02-14T11:07:27;97802.44;;;5.81;100.00
51261;BME280;61705;46.228;24.812;2024-02-14T11:10:04;97802.25;;;5.87;100.00
51261;BME280;61705;46.228;24.812;2024-02-14T11:12:34;97800.41;;;5.91;100.00
51261;BME280;61705;46.228;24.812;2024-02-14T11:15:19;97797.53;;;6.03;100.00
51261;BME280;61705;46.228;24.812;2024-02-14T11:17:46;97801.66;;;6.12;100.00
51261;BME280;61705;46.228;24.812;2024-02-14T11:20:16;97800.63;;;6.19;100.00
51261;BME280;61705;46.228;24.812;2024-02-14T11:23:02;97785.47;;;6.29;100.00
51261;BME280;61705;46.228;24.812;2024-02-14T11:25:38;97789.09;;;6.25;100.00
51261;BME280;61705;46.228;24.812;2024-02-14T11:28:17;97789.69;;;6.36;100.00
51261;BME280;61705;46.228;24.812;2024-02-14T11:30:46;97786.78;;;6.45;100.00
51261;BME280;61705;46.228;24.812;2024-02-14T11:33:13;97790.47;;;6.39;100.00
51261;BME280;61705;46.228;24.812;2024-02-14T11:35:41;97787.06;;;6.36;100.00
51261;BME280;61705;46.228;24.812;2024-02-14T11:38:08;97788.81;;;6.35;100.00
51261;BME280;61705;46.228;24.812;2024-02-14T11:40:36;97781.13;;;6.29;100.00
51261;BME280;61705;46.228;24.812;2024-02-14T11:43:05;97789.06;;;6.26;100.00
51261;BME280;61705;46.228;24.812;2024-02-14T11:45:36;97777.25;;;6.10;100.00
51261;BME280;61705;46.228;24.812;2024-02-14T11:48:05;97792.06;;;6.12;100.00
51261;BME280;61705;46.228;24.812;2024-02-14T11:50:32;97786.25;;;6.00;100.00
51261;BME280;61705;46.228;24.812;2024-02-14T11:52:59;97794.06;;;6.01;100.00
51261;BME280;61705;46.228;24.812;2024-02-14T11:55:28;97787.16;;;5.99;100.00
51261;BME280;61705;46.228;24.812;2024-02-14T11:57:56;97787.19;;;5.97;100.00
51261;BME280;61705;46.228;24.812;2024-02-14T12:00:23;97793.44;;;5.91;100.00
51261;BME280;61705;46.228;24.812;2024-02-14T12:02:53;97804.78;;;5.92;100.00
51261;BME280;61705;46.228;24.812;2024-02-14T12:05:20;97795.16;;;5.91;100.00
51261;BME280;61705;46.228;24.812;2024-02-14T12:07:46;97795.16;;;5.91;100.00
51261;BME280;61705;46.228;24.812;2024-02-14T12:10:19;97802.94;;;5.97;100.00
51261;BME280;61705;46.228;24.812;2024-02-14T12:12:48;97801.00;;;6.04;100.00
51261;BME280;61705;46.228;24.812;2024-02-14T12:15:14;97794.69;;;6.11;100.00
51261;BME280;61705;46.228;24.812;2024-02-14T12:17:42;97803.19;;;6.21;100.00
51261;BME280;61705;46.228;24.812;2024-02-14T12:20:09;97802.13;;;6.28;100.00
51261;BME280;61705;46.228;24.812;2024-02-14T12:22:40;97802.53;;;6.45;100.00
51261;BME280;61705;46.228;24.812;2024-02-14T12:25:07;97808.41;;;6.55;100.00
51261;BME280;61705;46.228;24.812;2024-02-14T12:27:34;97801.09;;;6.66;100.00
51261;BME280;61705;46.228;24.812;2024-02-14T12:30:05;97801.09;;;6.66;100.00
51261;BME280;61705;46.228;24.812;2024-02-14T12:32:33;97801.09;;;6.66;100.00
51261;BME280;61705;46.228;24.812;2024-02-14T12:35:00;97801.59;;;6.80;100.00
51261;BME280;61705;46.228;24.812;2024-02-14T12:37:27;97798.00;;;6.83;100.00
51261;BME280;61705;46.228;24.812;2024-02-14T12:39:53;97807.94;;;6.72;100.00
51261;BME280;61705;46.228;24.812;2024-02-14T12:42:21;97813.53;;;6.59;100.00
51261;BME280;61705;46.228;24.812;2024-02-14T12:44:53;97809.25;;;6.57;100.00
51261;BME280;61705;46.228;24.812;2024-02-14T12:47:20;97809.19;;;6.58;100.00
51261;BME280;61705;46.228;24.812;2024-02-14T12:49:48;97813.72;;;6.53;100.00
51261;BME280;61705;46.228;24.812;2024-02-14T12:52:15;97807.69;;;6.50;100.00
51261;BME280;61705;46.228;24.812;2024-02-14T12:54:43;97813.75;;;6.52;100.00